sensor_id;sensor_type;location;lat;lon;timestamp;temperature;humidity
16879;DHT22;8556;52.218;9.884;2022-10-31T00:01:44;13.70;99.90
16879;DHT22;8556;52.218;9.884;2022-10-31T00:04:11;13.50;99.90
16879;DHT22;8556;52.218;9.884;2022-10-31T00:06:37;13.60;99.90
16879;DHT22;8556;52.218;9.884;2022-10-31T00:09:06;13.60;99.90
16879;DHT22;8556;52.218;9.884;2022-10-31T00:11:33;13.60;99.90
16879;DHT22;8556;52.218;9.884;2022-10-31T00:14:00;13.40;99.90
16879;DHT22;8556;52.218;9.884;2022-10-31T00:16:28;13.40;99.90
16879;DHT22;8556;52.218;9.884;2022-10-31T00:18:57;13.50;99.90
16879;DHT22;8556;52.218;9.884;2022-10-31T00:21:24;13.40;99.90
16879;DHT22;8556;52.218;9.884;2022-10-31T00:23:51;13.60;99.90
16879;DHT22;8556;52.218;9.884;2022-10-31T00:26:20;13.50;99.90
16879;DHT22;8556;52.218;9.884;2022-10-31T00:28:47;13.50;99.90
16879;DHT22;8556;52.218;9.884;2022-10-31T00:31:14;13.50;99.90
16879;DHT22;8556;52.218;9.884;2022-10-31T00:33:41;13.40;99.90
16879;DHT22;8556;52.218;9.884;2022-10-31T00:36:11;13.50;99.90
16879;DHT22;8556;52.218;9.884;2022-10-31T00:38:39;13.50;99.90
16879;DHT22;8556;52.218;9.884;2022-10-31T00:41:06;13.40;99.90
16879;DHT22;8556;52.218;9.884;2022-10-31T00:43:34;13.40;99.90
16879;DHT22;8556;52.218;9.884;2022-10-31T00:46:01;13.30;99.90
16879;DHT22;8556;52.218;9.884;2022-10-31T00:48:27;13.20;99.90
16879;DHT22;8556;52.218;9.884;2022-10-31T00:50:55;13.20;99.90
16879;DHT22;8556;52.218;9.884;2022-10-31T00:53:21;13.20;99.90
16879;DHT22;8556;52.218;9.884;2022-10-31T00:55:48;13.40;99.90
16879;DHT22;8556;52.218;9.884;2022-10-31T00:58:15;13.30;99.90
16879;DHT22;8556;52.218;9.884;2022-10-31T01:00:43;13.20;99.90
16879;DHT22;8556;52.218;9.884;2022-10-31T01:03:10;13.10;99.90
16879;DHT22;8556;52.218;9.884;2022-10-31T01:05:37;13.00;99.90
16879;DHT22;8556;52.218;9.884;2022-10-31T01:08:04;13.00;99.90
16879;DHT22;8556;52.218;9.884;2022-10-31T01:10:31;13.00;99.90
16879;DHT22;8556;52.218;9.884;2022-10-31T01:12:57;13.00;99.90
16879;DHT22;8556;52.218;9.884;2022-10-31T01:15:24;13.00;99.90
16879;DHT22;8556;52.218;9.884;2022-10-31T01:17:52;13.10;99.90
16879;DHT22;8556;52.218;9.884;2022-10-31T01:20:19;13.10;99.90
16879;DHT22;8556;52.218;9.884;2022-10-31T01:22:46;13.10;99.90
16879;DHT22;8556;52.218;9.884;2022-10-31T01:25:13;13.10;99.90
16879;DHT22;8556;52.218;9.884;2022-10-31T01:27:39;12.90;99.90
16879;DHT22;8556;52.218;9.884;2022-10-31T01:30:07;13.00;99.90
16879;DHT22;8556;52.218;9.884;2022-10-31T01:32:34;13.00;99.90
16879;DHT22;8556;52.218;9.884;2022-10-31T01:35:03;13.00;99.90
16879;DHT22;8556;52.218;9.884;2022-10-31T01:37:30;13.10;99.90
16879;DHT22;8556;52.218;9.884;2022-10-31T01:39:57;13.20;99.90
16879;DHT22;8556;52.218;9.884;2022-10-31T01:42:24;13.40;99.90
16879;DHT22;8556;52.218;9.884;2022-10-31T01:44:54;13.60;99.90
16879;DHT22;8556;52.218;9.884;2022-10-31T01:47:37;13.70;99.90
16879;DHT22;8556;52.218;9.884;2022-10-31T01:50:14;13.70;99.90
16879;DHT22;8556;52.218;9.884;2022-10-31T01:52:44;13.90;99.90
16879;DHT22;8556;52.218;9.884;2022-10-31T01:55:15;14.00;99.90
16879;DHT22;8556;52.218;9.884;2022-10-31T01:57:45;14.00;99.90
16879;DHT22;8556;52.218;9.884;2022-10-31T02:00:14;14.00;99.90
16879;DHT22;8556;52.218;9.884;2022-10-31T02:02:41;14.00;99.90
16879;DHT22;8556;52.218;9.884;2022-10-31T02:05:14;13.90;99.90
16879;DHT22;8556;52.218;9.884;2022-10-31T02:07:48;13.90;99.90
16879;DHT22;8556;52.218;9.884;2022-10-31T02:10:15;13.90;99.90
16879;DHT22;8556;52.218;9.884;2022-10-31T02:12:43;13.90;99.90
16879;DHT22;8556;52.218;9.884;2022-10-31T02:15:10;13.80;99.90
16879;DHT22;8556;52.218;9.884;2022-10-31T02:17:37;13.80;99.90
16879;DHT22;8556;52.218;9.884;2022-10-31T02:20:14;13.60;99.90
16879;DHT22;8556;52.218;9.884;2022-10-31T02:23:06;13.60;99.90
16879;DHT22;8556;52.218;9.884;2022-10-31T02:25:56;13.50;99.90
16879;DHT22;8556;52.218;9.884;2022-10-31T02:28:45;13.30;99.90
16879;DHT22;8556;52.218;9.884;2022-10-31T02:31:23;13.20;99.90
16879;DHT22;8556;52.218;9.884;2022-10-31T02:33:57;13.30;99.90
16879;DHT22;8556;52.218;9.884;2022-10-31T02:36:28;13.20;99.90
16879;DHT22;8556;52.218;9.884;2022-10-31T02:39:06;13.10;99.90
16879;DHT22;8556;52.218;9.884;2022-10-31T02:41:40;13.10;99.90
16879;DHT22;8556;52.218;9.884;2022-10-31T02:44:16;13.10;99.90
16879;DHT22;8556;52.218;9.884;2022-10-31T02:46:50;12.90;99.90
16879;DHT22;8556;52.218;9.884;2022-10-31T02:49:23;12.90;99.90
16879;DHT22;8556;52.218;9.884;2022-10-31T02:51:51;12.80;99.90
16879;DHT22;8556;52.218;9.884;2022-10-31T02:54:19;12.90;99.90
16879;DHT22;8556;52.218;9.884;2022-10-31T02:56:49;12.90;99.90
16879;DHT22;8556;52.218;9.884;2022-10-31T02:59:17;13.00;99.90
16879;DHT22;8556;52.218;9.884;2022-10-31T03:02:09;12.80;99.90
16879;DHT22;8556;52.218;9.884;2022-10-31T03:05:06;12.80;99.90
16879;DHT22;8556;52.218;9.884;2022-10-31T03:07:42;12.60;99.90
16879;DHT22;8556;52.218;9.884;2022-10-31T03:10:16;12.50;99.90
16879;DHT22;8556;52.218;9.884;2022-10-31T03:12:51;12.40;99.90
16879;DHT22;8556;52.218;9.884;2022-10-31T03:15:24;12.50;99.90
16879;DHT22;8556;52.218;9.884;2022-10-31T03:17:56;12.40;99.90
16879;DHT22;8556;52.218;9.884;2022-10-31T03:20:30;12.40;99.90
16879;DHT22;8556;52.218;9.884;2022-10-31T03:22:59;12.40;99.90
16879;DHT22;8556;52.218;9.884;2022-10-31T03:25:27;12.40;99.90
16879;DHT22;8556;52.218;9.884;2022-10-31T03:27:56;12.40;99.90
16879;DHT22;8556;52.218;9.884;2022-10-31T03:30:24;12.30;99.90
16879;DHT22;8556;52.218;9.884;2022-10-31T03:32:54;12.30;99.90
16879;DHT22;8556;52.218;9.884;2022-10-31T03:35:24;12.40;99.90
16879;DHT22;8556;52.218;9.884;2022-10-31T03:37:53;12.20;99.90
16879;DHT22;8556;52.218;9.884;2022-10-31T03:40:21;12.20;99.90
16879;DHT22;8556;52.218;9.884;2022-10-31T03:42:53;12.20;99.90
16879;DHT22;8556;52.218;9.884;2022-10-31T03:45:24;12.20;99.90
16879;DHT22;8556;52.218;9.884;2022-10-31T03:47:54;12.20;99.90
16879;DHT22;8556;52.218;9.884;2022-10-31T03:50:24;12.20;99.90
16879;DHT22;8556;52.218;9.884;2022-10-31T03:52:55;12.20;99.90
16879;DHT22;8556;52.218;9.884;2022-10-31T03:55:28;12.20;99.90
16879;DHT22;8556;52.218;9.884;2022-10-31T03:57:59;12.30;99.90
16879;DHT22;8556;52.218;9.884;2022-10-31T04:00:26;12.30;99.90
16879;DHT22;8556;52.218;9.884;2022-10-31T04:02:58;12.10;99.90
16879;DHT22;8556;52.218;9.884;2022-10-31T04:05:27;12.10;99.90
16879;DHT22;8556;52.218;9.884;2022-10-31T04:07:56;12.10;99.90
16879;DHT22;8556;52.218;9.884;2022-10-31T04:10:26;12.10;99.90
16879;DHT22;8556;52.218;9.884;2022-10-31T04:13:00;12.20;99.90
16879;DHT22;8556;52.218;9.884;2022-10-31T04:15:28;12.10;99.90
16879;DHT22;8556;52.218;9.884;2022-10-31T04:17:59;12.10;99.90
16879;DHT22;8556;52.218;9.884;2022-10-31T04:20:30;12.20;99.90
16879;DHT22;8556;52.218;9.884;2022-10-31T04:22:56;12.20;99.90
16879;DHT22;8556;52.218;9.884;2022-10-31T04:25:23;12.30;99.90
16879;DHT22;8556;52.218;9.884;2022-10-31T04:27:50;12.20;99.90
16879;DHT22;8556;52.218;9.884;2022-10-31T04:30:17;12.30;99.90
16879;DHT22;8556;52.218;9.884;2022-10-31T04:32:44;12.40;99.90
16879;DHT22;8556;52.218;9.884;2022-10-31T04:35:12;12.50;99.90
16879;DHT22;8556;52.218;9.884;2022-10-31T04:37:39;12.40;99.90
16879;DHT22;8556;52.218;9.884;2022-10-31T04:40:06;12.30;99.90
16879;DHT22;8556;52.218;9.884;2022-10-31T04:42:33;12.30;99.90
16879;DHT22;8556;52.218;9.884;2022-10-31T04:45:00;12.30;99.90
16879;DHT22;8556;52.218;9.884;2022-10-31T04:47:27;12.30;99.90
16879;DHT22;8556;52.218;9.884;2022-10-31T04:49:54;12.20;99.90
16879;DHT22;8556;52.218;9.884;2022-10-31T04:52:22;12.20;99.90
16879;DHT22;8556;52.218;9.884;2022-10-31T04:54:48;12.20;99.90
16879;DHT22;8556;52.218;9.884;2022-10-31T04:57:15;12.20;99.90
16879;DHT22;8556;52.218;9.884;2022-10-31T04:59:42;12.20;99.90
16879;DHT22;8556;52.218;9.884;2022-10-31T05:02:09;12.10;99.90
16879;DHT22;8556;52.218;9.884;2022-10-31T05:04:36;12.20;99.90
16879;DHT22;8556;52.218;9.884;2022-10-31T05:07:03;12.10;99.90
16879;DHT22;8556;52.218;9.884;2022-10-31T05:09:34;12.10;99.90
16879;DHT22;8556;52.218;9.884;2022-10-31T05:12:00;12.00;99.90
16879;DHT22;8556;52.218;9.884;2022-10-31T05:14:27;12.00;99.90
16879;DHT22;8556;52.218;9.884;2022-10-31T05:16:54;11.90;99.90
16879;DHT22;8556;52.218;9.884;2022-10-31T05:19:21;11.90;99.90
16879;DHT22;8556;52.218;9.884;2022-10-31T05:21:48;11.90;99.90
16879;DHT22;8556;52.218;9.884;2022-10-31T05:24:15;11.90;99.90
16879;DHT22;8556;52.218;9.884;2022-10-31T05:26:43;11.90;99.90
16879;DHT22;8556;52.218;9.884;2022-10-31T05:29:10;11.70;99.90
16879;DHT22;8556;52.218;9.884;2022-10-31T05:31:37;11.60;99.90
16879;DHT22;8556;52.218;9.884;2022-10-31T05:34:04;11.60;99.90
16879;DHT22;8556;52.218;9.884;2022-10-31T05:36:31;11.40;99.90
16879;DHT22;8556;52.218;9.884;2022-10-31T05:38:58;11.40;99.90
16879;DHT22;8556;52.218;9.884;2022-10-31T05:41:24;11.20;99.90
16879;DHT22;8556;52.218;9.884;2022-10-31T05:43:53;11.30;99.90
16879;DHT22;8556;52.218;9.884;2022-10-31T05:46:20;11.20;99.90
16879;DHT22;8556;52.218;9.884;2022-10-31T05:48:47;11.00;99.90
16879;DHT22;8556;52.218;9.884;2022-10-31T05:51:14;11.00;99.90
16879;DHT22;8556;52.218;9.884;2022-10-31T05:53:41;11.00;99.90
16879;DHT22;8556;52.218;9.884;2022-10-31T05:56:08;11.00;99.90
16879;DHT22;8556;52.218;9.884;2022-10-31T05:58:34;11.00;99.90
16879;DHT22;8556;52.218;9.884;2022-10-31T06:01:03;11.00;99.90
16879;DHT22;8556;52.218;9.884;2022-10-31T06:03:30;11.00;99.90
16879;DHT22;8556;52.218;9.884;2022-10-31T06:05:57;10.90;99.90
16879;DHT22;8556;52.218;9.884;2022-10-31T06:08:24;10.30;99.90
16879;DHT22;8556;52.218;9.884;2022-10-31T06:10:51;10.30;99.90
16879;DHT22;8556;52.218;9.884;2022-10-31T06:13:19;10.40;99.90
16879;DHT22;8556;52.218;9.884;2022-10-31T06:15:46;10.50;99.90
16879;DHT22;8556;52.218;9.884;2022-10-31T06:18:14;10.50;99.90
16879;DHT22;8556;52.218;9.884;2022-10-31T06:20:41;10.60;99.90
16879;DHT22;8556;52.218;9.884;2022-10-31T06:23:08;10.50;99.90
16879;DHT22;8556;52.218;9.884;2022-10-31T06:25:35;10.60;99.90
16879;DHT22;8556;52.218;9.884;2022-10-31T06:28:02;10.50;99.90
16879;DHT22;8556;52.218;9.884;2022-10-31T06:30:29;10.50;99.90
16879;DHT22;8556;52.218;9.884;2022-10-31T06:33:02;10.50;99.90
16879;DHT22;8556;52.218;9.884;2022-10-31T06:35:30;10.50;99.90
16879;DHT22;8556;52.218;9.884;2022-10-31T06:37:57;10.40;99.90
16879;DHT22;8556;52.218;9.884;2022-10-31T06:40:24;10.60;99.90
16879;DHT22;8556;52.218;9.884;2022-10-31T06:42:57;10.40;99.90
16879;DHT22;8556;52.218;9.884;2022-10-31T06:45:24;10.40;99.90
16879;DHT22;8556;52.218;9.884;2022-10-31T06:47:52;10.30;99.90
16879;DHT22;8556;52.218;9.884;2022-10-31T06:50:19;10.40;99.90
16879;DHT22;8556;52.218;9.884;2022-10-31T06:52:51;10.60;99.90
16879;DHT22;8556;52.218;9.884;2022-10-31T06:55:18;10.80;99.90
16879;DHT22;8556;52.218;9.884;2022-10-31T06:57:51;10.50;99.90
16879;DHT22;8556;52.218;9.884;2022-10-31T07:00:18;10.40;99.90
16879;DHT22;8556;52.218;9.884;2022-10-31T07:02:53;10.40;99.90
16879;DHT22;8556;52.218;9.884;2022-10-31T07:05:20;10.50;99.90
16879;DHT22;8556;52.218;9.884;2022-10-31T07:07:47;10.70;99.90
16879;DHT22;8556;52.218;9.884;2022-10-31T07:10:15;10.80;99.90
16879;DHT22;8556;52.218;9.884;2022-10-31T07:12:42;10.90;99.90
16879;DHT22;8556;52.218;9.884;2022-10-31T07:15:11;11.00;99.90
16879;DHT22;8556;52.218;9.884;2022-10-31T07:17:39;11.00;99.90
16879;DHT22;8556;52.218;9.884;2022-10-31T07:20:07;11.10;99.90
16879;DHT22;8556;52.218;9.884;2022-10-31T07:22:37;11.10;99.90
16879;DHT22;8556;52.218;9.884;2022-10-31T07:25:05;11.10;99.90
16879;DHT22;8556;52.218;9.884;2022-10-31T07:27:37;11.20;99.90
16879;DHT22;8556;52.218;9.884;2022-10-31T07:30:05;11.30;99.90
16879;DHT22;8556;52.218;9.884;2022-10-31T07:32:39;11.30;99.90
16879;DHT22;8556;52.218;9.884;2022-10-31T07:35:07;10.80;99.90
16879;DHT22;8556;52.218;9.884;2022-10-31T07:37:34;10.80;99.90
16879;DHT22;8556;52.218;9.884;2022-10-31T07:40:01;10.90;99.90
16879;DHT22;8556;52.218;9.884;2022-10-31T07:42:27;11.00;99.90
16879;DHT22;8556;52.218;9.884;2022-10-31T07:44:56;11.00;99.90
16879;DHT22;8556;52.218;9.884;2022-10-31T07:47:22;11.10;99.90
16879;DHT22;8556;52.218;9.884;2022-10-31T07:49:49;11.30;99.90
16879;DHT22;8556;52.218;9.884;2022-10-31T07:52:16;11.30;99.90
16879;DHT22;8556;52.218;9.884;2022-10-31T07:54:44;11.30;99.90
16879;DHT22;8556;52.218;9.884;2022-10-31T07:57:10;11.30;99.90
16879;DHT22;8556;52.218;9.884;2022-10-31T07:59:37;11.40;99.90
16879;DHT22;8556;52.218;9.884;2022-10-31T08:02:07;11.50;99.90
16879;DHT22;8556;52.218;9.884;2022-10-31T08:04:34;11.60;99.90
16879;DHT22;8556;52.218;9.884;2022-10-31T08:07:02;11.70;99.90
16879;DHT22;8556;52.218;9.884;2022-10-31T08:09:29;11.90;99.90
16879;DHT22;8556;52.218;9.884;2022-10-31T08:11:56;11.90;99.90
16879;DHT22;8556;52.218;9.884;2022-10-31T08:14:22;12.10;99.90
16879;DHT22;8556;52.218;9.884;2022-10-31T08:16:50;12.10;99.90
16879;DHT22;8556;52.218;9.884;2022-10-31T08:19:18;12.10;99.90
16879;DHT22;8556;52.218;9.884;2022-10-31T08:21:45;12.20;99.90
16879;DHT22;8556;52.218;9.884;2022-10-31T08:24:12;12.20;99.90
16879;DHT22;8556;52.218;9.884;2022-10-31T08:26:38;12.20;99.90
16879;DHT22;8556;52.218;9.884;2022-10-31T08:29:05;12.20;99.90
16879;DHT22;8556;52.218;9.884;2022-10-31T08:31:32;12.30;99.90
16879;DHT22;8556;52.218;9.884;2022-10-31T08:33:59;12.30;99.90
16879;DHT22;8556;52.218;9.884;2022-10-31T08:36:28;12.40;99.90
16879;DHT22;8556;52.218;9.884;2022-10-31T08:38:55;12.40;99.90
16879;DHT22;8556;52.218;9.884;2022-10-31T08:41:22;12.50;99.90
16879;DHT22;8556;52.218;9.884;2022-10-31T08:43:49;12.60;99.90
16879;DHT22;8556;52.218;9.884;2022-10-31T08:46:15;12.80;99.90
16879;DHT22;8556;52.218;9.884;2022-10-31T08:48:43;13.10;99.90
16879;DHT22;8556;52.218;9.884;2022-10-31T08:51:10;13.20;99.90
16879;DHT22;8556;52.218;9.884;2022-10-31T08:53:38;13.30;99.90
16879;DHT22;8556;52.218;9.884;2022-10-31T08:56:06;13.30;99.90
16879;DHT22;8556;52.218;9.884;2022-10-31T08:58:32;13.30;99.90
16879;DHT22;8556;52.218;9.884;2022-10-31T09:01:00;13.50;99.90
16879;DHT22;8556;52.218;9.884;2022-10-31T09:03:29;13.50;99.90
16879;DHT22;8556;52.218;9.884;2022-10-31T09:05:59;13.50;99.90
16879;DHT22;8556;52.218;9.884;2022-10-31T09:08:28;13.70;99.90
16879;DHT22;8556;52.218;9.884;2022-10-31T09:10:57;13.90;99.90
16879;DHT22;8556;52.218;9.884;2022-10-31T09:13:24;13.90;99.90
16879;DHT22;8556;52.218;9.884;2022-10-31T09:15:51;14.00;99.90
16879;DHT22;8556;52.218;9.884;2022-10-31T09:18:21;14.00;99.90
16879;DHT22;8556;52.218;9.884;2022-10-31T09:20:50;14.20;99.90
16879;DHT22;8556;52.218;9.884;2022-10-31T09:23:18;14.40;99.90
16879;DHT22;8556;52.218;9.884;2022-10-31T09:25:46;14.50;99.90
16879;DHT22;8556;52.218;9.884;2022-10-31T09:28:16;14.70;99.90
16879;DHT22;8556;52.218;9.884;2022-10-31T09:30:46;14.90;99.90
16879;DHT22;8556;52.218;9.884;2022-10-31T09:33:13;15.00;99.90
16879;DHT22;8556;52.218;9.884;2022-10-31T09:35:41;15.10;99.90
16879;DHT22;8556;52.218;9.884;2022-10-31T09:38:10;15.30;99.90
16879;DHT22;8556;52.218;9.884;2022-10-31T09:40:38;15.60;99.90
16879;DHT22;8556;52.218;9.884;2022-10-31T09:43:17;15.70;99.90
16879;DHT22;8556;52.218;9.884;2022-10-31T09:45:56;15.80;99.90
16879;DHT22;8556;52.218;9.884;2022-10-31T09:48:45;15.90;99.90
16879;DHT22;8556;52.218;9.884;2022-10-31T09:51:18;15.90;99.90
16879;DHT22;8556;52.218;9.884;2022-10-31T09:53:49;15.90;99.90
16879;DHT22;8556;52.218;9.884;2022-10-31T09:56:19;15.90;99.90
16879;DHT22;8556;52.218;9.884;2022-10-31T09:58:50;16.10;99.90
16879;DHT22;8556;52.218;9.884;2022-10-31T10:01:39;16.20;99.90
16879;DHT22;8556;52.218;9.884;2022-10-31T10:04:29;16.40;99.90
16879;DHT22;8556;52.218;9.884;2022-10-31T10:06:58;16.60;99.90
16879;DHT22;8556;52.218;9.884;2022-10-31T10:09:26;16.80;99.90
16879;DHT22;8556;52.218;9.884;2022-10-31T10:12:05;16.60;99.90
16879;DHT22;8556;52.218;9.884;2022-10-31T10:14:47;16.50;99.90
16879;DHT22;8556;52.218;9.884;2022-10-31T10:17:27;16.70;99.90
16879;DHT22;8556;52.218;9.884;2022-10-31T10:20:18;16.90;99.90
16879;DHT22;8556;52.218;9.884;2022-10-31T10:22:54;17.10;99.90
16879;DHT22;8556;52.218;9.884;2022-10-31T10:25:23;17.10;99.90
16879;DHT22;8556;52.218;9.884;2022-10-31T10:28:02;17.30;99.90
16879;DHT22;8556;52.218;9.884;2022-10-31T10:30:38;17.30;99.90
16879;DHT22;8556;52.218;9.884;2022-10-31T10:33:10;17.20;99.90
16879;DHT22;8556;52.218;9.884;2022-10-31T10:35:42;17.20;99.90
16879;DHT22;8556;52.218;9.884;2022-10-31T10:38:17;17.30;99.90
16879;DHT22;8556;52.218;9.884;2022-10-31T10:40:46;17.60;99.90
16879;DHT22;8556;52.218;9.884;2022-10-31T10:43:32;17.50;99.90
16879;DHT22;8556;52.218;9.884;2022-10-31T10:46:13;17.50;99.90
16879;DHT22;8556;52.218;9.884;2022-10-31T10:49:08;17.60;99.90
16879;DHT22;8556;52.218;9.884;2022-10-31T10:51:40;17.60;99.90
16879;DHT22;8556;52.218;9.884;2022-10-31T10:54:36;18.00;99.90
16879;DHT22;8556;52.218;9.884;2022-10-31T10:57:15;18.10;99.90
16879;DHT22;8556;52.218;9.884;2022-10-31T10:59:44;18.40;99.90
16879;DHT22;8556;52.218;9.884;2022-10-31T11:02:17;18.10;99.90
16879;DHT22;8556;52.218;9.884;2022-10-31T11:04:45;17.70;99.90
16879;DHT22;8556;52.218;9.884;2022-10-31T11:07:13;17.90;99.90
16879;DHT22;8556;52.218;9.884;2022-10-31T11:09:40;17.80;99.90
16879;DHT22;8556;52.218;9.884;2022-10-31T11:12:10;17.90;99.90
16879;DHT22;8556;52.218;9.884;2022-10-31T11:14:44;17.80;99.90
16879;DHT22;8556;52.218;9.884;2022-10-31T11:17:20;17.90;99.90
16879;DHT22;8556;52.218;9.884;2022-10-31T11:20:00;17.80;99.90
16879;DHT22;8556;52.218;9.884;2022-10-31T11:22:27;18.10;99.90
16879;DHT22;8556;52.218;9.884;2022-10-31T11:24:54;18.20;99.90
16879;DHT22;8556;52.218;9.884;2022-10-31T11:27:22;18.10;99.90
16879;DHT22;8556;52.218;9.884;2022-10-31T11:29:50;18.30;99.90
16879;DHT22;8556;52.218;9.884;2022-10-31T11:32:21;18.50;99.90
16879;DHT22;8556;52.218;9.884;2022-10-31T11:34:50;18.70;95.30
16879;DHT22;8556;52.218;9.884;2022-10-31T11:37:20;18.40;99.90
16879;DHT22;8556;52.218;9.884;2022-10-31T11:39:50;18.50;99.90
16879;DHT22;8556;52.218;9.884;2022-10-31T11:42:21;18.60;62.10
16879;DHT22;8556;52.218;9.884;2022-10-31T11:44:50;18.90;1.00
16879;DHT22;8556;52.218;9.884;2022-10-31T11:47:25;19.20;1.00
16879;DHT22;8556;52.218;9.884;2022-10-31T11:49:53;19.10;11.30
16879;DHT22;8556;52.218;9.884;2022-10-31T11:52:22;19.30;1.00
16879;DHT22;8556;52.218;9.884;2022-10-31T11:54:54;19.60;99.90
16879;DHT22;8556;52.218;9.884;2022-10-31T11:57:26;19.30;99.90
16879;DHT22;8556;52.218;9.884;2022-10-31T11:59:55;18.80;1.00
16879;DHT22;8556;52.218;9.884;2022-10-31T12:02:24;18.70;1.00
16879;DHT22;8556;52.218;9.884;2022-10-31T12:04:56;19.30;99.90
16879;DHT22;8556;52.218;9.884;2022-10-31T12:07:24;19.70;96.70
16879;DHT22;8556;52.218;9.884;2022-10-31T12:09:51;19.60;1.00
16879;DHT22;8556;52.218;9.884;2022-10-31T12:12:50;19.70;98.90
16879;DHT22;8556;52.218;9.884;2022-10-31T12:15:30;19.50;99.90
16879;DHT22;8556;52.218;9.884;2022-10-31T12:18:30;19.00;99.90
16879;DHT22;8556;52.218;9.884;2022-10-31T12:21:09;18.70;99.90
16879;DHT22;8556;52.218;9.884;2022-10-31T12:23:51;18.30;99.90
16879;DHT22;8556;52.218;9.884;2022-10-31T12:26:26;18.10;99.90
16879;DHT22;8556;52.218;9.884;2022-10-31T12:29:15;18.10;99.90
16879;DHT22;8556;52.218;9.884;2022-10-31T12:31:57;18.20;99.90
16879;DHT22;8556;52.218;9.884;2022-10-31T12:37:28;19.20;99.90
16879;DHT22;8556;52.218;9.884;2022-10-31T12:40:11;19.20;99.90
16879;DHT22;8556;52.218;9.884;2022-10-31T12:42:51;19.10;99.90
16879;DHT22;8556;52.218;9.884;2022-10-31T12:45:36;19.50;99.90
16879;DHT22;8556;52.218;9.884;2022-10-31T12:48:24;19.20;97.40
16879;DHT22;8556;52.218;9.884;2022-10-31T12:51:01;18.70;99.90
16879;DHT22;8556;52.218;9.884;2022-10-31T12:53:50;18.80;99.90
16879;DHT22;8556;52.218;9.884;2022-10-31T12:56:31;18.90;99.90
16879;DHT22;8556;52.218;9.884;2022-10-31T12:59:06;18.80;99.90
16879;DHT22;8556;52.218;9.884;2022-10-31T13:01:39;18.70;99.90
16879;DHT22;8556;52.218;9.884;2022-10-31T13:04:14;18.50;99.90
16879;DHT22;8556;52.218;9.884;2022-10-31T13:06:48;18.50;99.90
16879;DHT22;8556;52.218;9.884;2022-10-31T13:09:20;18.50;99.90
16879;DHT22;8556;52.218;9.884;2022-10-31T13:11:53;18.40;99.90
16879;DHT22;8556;52.218;9.884;2022-10-31T13:14:26;18.40;99.90
16879;DHT22;8556;52.218;9.884;2022-10-31T13:16:55;18.10;99.90
16879;DHT22;8556;52.218;9.884;2022-10-31T13:19:25;18.10;99.90
16879;DHT22;8556;52.218;9.884;2022-10-31T13:21:59;18.10;99.90
16879;DHT22;8556;52.218;9.884;2022-10-31T13:24:31;18.00;99.90
16879;DHT22;8556;52.218;9.884;2022-10-31T13:27:04;18.00;99.90
16879;DHT22;8556;52.218;9.884;2022-10-31T13:29:39;18.00;99.90
16879;DHT22;8556;52.218;9.884;2022-10-31T13:32:10;18.00;99.90
16879;DHT22;8556;52.218;9.884;2022-10-31T13:34:40;18.00;99.90
16879;DHT22;8556;52.218;9.884;2022-10-31T13:37:15;17.90;99.90
16879;DHT22;8556;52.218;9.884;2022-10-31T13:39:56;18.00;99.90
16879;DHT22;8556;52.218;9.884;2022-10-31T13:42:37;17.80;99.90
16879;DHT22;8556;52.218;9.884;2022-10-31T13:45:12;17.80;99.90
16879;DHT22;8556;52.218;9.884;2022-10-31T13:47:42;17.70;99.90
16879;DHT22;8556;52.218;9.884;2022-10-31T13:50:21;17.70;99.90
16879;DHT22;8556;52.218;9.884;2022-10-31T13:52:50;17.60;99.90
16879;DHT22;8556;52.218;9.884;2022-10-31T13:55:41;17.50;99.90
16879;DHT22;8556;52.218;9.884;2022-10-31T13:58:24;17.50;99.90
16879;DHT22;8556;52.218;9.884;2022-10-31T14:01:03;17.50;99.90
16879;DHT22;8556;52.218;9.884;2022-10-31T14:03:36;17.40;99.90
16879;DHT22;8556;52.218;9.884;2022-10-31T14:06:05;17.40;99.90
16879;DHT22;8556;52.218;9.884;2022-10-31T14:08:34;17.40;99.90
16879;DHT22;8556;52.218;9.884;2022-10-31T14:11:03;17.30;99.90
16879;DHT22;8556;52.218;9.884;2022-10-31T14:13:33;17.30;99.90
16879;DHT22;8556;52.218;9.884;2022-10-31T14:16:04;17.30;99.90
16879;DHT22;8556;52.218;9.884;2022-10-31T14:18:34;17.30;99.90
16879;DHT22;8556;52.218;9.884;2022-10-31T14:21:14;17.30;99.90
16879;DHT22;8556;52.218;9.884;2022-10-31T14:23:42;17.30;99.90
16879;DHT22;8556;52.218;9.884;2022-10-31T14:26:30;17.30;99.90
16879;DHT22;8556;52.218;9.884;2022-10-31T14:28:59;17.30;99.90
16879;DHT22;8556;52.218;9.884;2022-10-31T14:31:34;17.20;99.90
16879;DHT22;8556;52.218;9.884;2022-10-31T14:34:16;17.20;99.90
16879;DHT22;8556;52.218;9.884;2022-10-31T14:36:56;17.20;99.90
16879;DHT22;8556;52.218;9.884;2022-10-31T14:39:31;17.10;99.90
16879;DHT22;8556;52.218;9.884;2022-10-31T14:42:10;17.10;99.90
16879;DHT22;8556;52.218;9.884;2022-10-31T14:44:58;17.10;99.90
16879;DHT22;8556;52.218;9.884;2022-10-31T14:47:35;17.10;99.90
16879;DHT22;8556;52.218;9.884;2022-10-31T14:50:24;17.00;99.90
16879;DHT22;8556;52.218;9.884;2022-10-31T14:52:54;17.00;99.90
16879;DHT22;8556;52.218;9.884;2022-10-31T14:55:26;17.00;99.90
16879;DHT22;8556;52.218;9.884;2022-10-31T14:57:55;16.90;99.90
16879;DHT22;8556;52.218;9.884;2022-10-31T15:00:24;16.90;99.90
16879;DHT22;8556;52.218;9.884;2022-10-31T15:02:58;16.90;99.90
16879;DHT22;8556;52.218;9.884;2022-10-31T15:05:27;16.90;99.90
16879;DHT22;8556;52.218;9.884;2022-10-31T15:07:55;16.70;99.90
16879;DHT22;8556;52.218;9.884;2022-10-31T15:10:27;16.70;99.90
16879;DHT22;8556;52.218;9.884;2022-10-31T15:12:55;16.70;99.90
16879;DHT22;8556;52.218;9.884;2022-10-31T15:15:23;16.60;99.90
16879;DHT22;8556;52.218;9.884;2022-10-31T15:17:53;16.50;99.90
16879;DHT22;8556;52.218;9.884;2022-10-31T15:20:23;16.50;99.90
16879;DHT22;8556;52.218;9.884;2022-10-31T15:22:52;16.50;99.90
16879;DHT22;8556;52.218;9.884;2022-10-31T15:25:27;16.40;99.90
16879;DHT22;8556;52.218;9.884;2022-10-31T15:27:55;16.20;99.90
16879;DHT22;8556;52.218;9.884;2022-10-31T15:30:24;16.00;99.90
16879;DHT22;8556;52.218;9.884;2022-10-31T15:32:51;15.90;99.90
16879;DHT22;8556;52.218;9.884;2022-10-31T15:35:23;15.80;99.90
16879;DHT22;8556;52.218;9.884;2022-10-31T15:37:51;15.70;99.90
16879;DHT22;8556;52.218;9.884;2022-10-31T15:40:20;15.70;99.90
16879;DHT22;8556;52.218;9.884;2022-10-31T15:42:51;15.70;99.90
16879;DHT22;8556;52.218;9.884;2022-10-31T15:45:21;15.70;99.90
16879;DHT22;8556;52.218;9.884;2022-10-31T15:47:54;15.70;99.90
16879;DHT22;8556;52.218;9.884;2022-10-31T15:50:29;15.60;99.90
16879;DHT22;8556;52.218;9.884;2022-10-31T15:52:58;15.60;99.90
16879;DHT22;8556;52.218;9.884;2022-10-31T15:55:27;15.40;99.90
16879;DHT22;8556;52.218;9.884;2022-10-31T15:57:59;15.50;99.90
16879;DHT22;8556;52.218;9.884;2022-10-31T16:00:29;15.50;99.90
16879;DHT22;8556;52.218;9.884;2022-10-31T16:03:05;15.50;99.90
16879;DHT22;8556;52.218;9.884;2022-10-31T16:05:37;15.60;99.90
16879;DHT22;8556;52.218;9.884;2022-10-31T16:08:04;15.50;99.90
16879;DHT22;8556;52.218;9.884;2022-10-31T16:10:33;15.50;99.90
16879;DHT22;8556;52.218;9.884;2022-10-31T16:13:02;15.50;99.90
16879;DHT22;8556;52.218;9.884;2022-10-31T16:15:33;15.40;99.90